sensor_id;sensor_type;location;lat;lon;timestamp;P1;durP1;ratioP1;P2;durP2;ratioP2
47749;SDS011;49810;48.160;10.812;2024-03-17T00:00:22;9.07;;;4.60;;
47749;SDS011;49810;48.160;10.812;2024-03-17T00:01:23;6.88;;;4.38;;
47749;SDS011;49810;48.160;10.812;2024-03-17T00:02:24;7.32;;;4.07;;
47749;SDS011;49810;48.160;10.812;2024-03-17T00:03:29;7.93;;;4.30;;
47749;SDS011;49810;48.160;10.812;2024-03-17T00:04:30;9.23;;;4.55;;
47749;SDS011;49810;48.160;10.812;2024-03-17T00:05:32;9.00;;;4.22;;
47749;SDS011;49810;48.160;10.812;2024-03-17T00:06:34;7.85;;;4.30;;
47749;SDS011;49810;48.160;10.812;2024-03-17T00:07:35;6.28;;;3.90;;
47749;SDS011;49810;48.160;10.812;2024-03-17T00:08:36;9.77;;;5.13;;
47749;SDS011;49810;48.160;10.812;2024-03-17T00:09:38;6.75;;;4.80;;
47749;SDS011;49810;48.160;10.812;2024-03-17T00:10:40;8.02;;;4.70;;
47749;SDS011;49810;48.160;10.812;2024-03-17T00:11:41;6.32;;;4.00;;
47749;SDS011;49810;48.160;10.812;2024-03-17T00:12:42;9.90;;;5.95;;
47749;SDS011;49810;48.160;10.812;2024-03-17T00:13:44;8.30;;;4.57;;
47749;SDS011;49810;48.160;10.812;2024-03-17T00:14:45;7.28;;;3.72;;
47749;SDS011;49810;48.160;10.812;2024-03-17T00:15:46;5.50;;;3.88;;
47749;SDS011;49810;48.160;10.812;2024-03-17T00:16:48;9.05;;;4.80;;
47749;SDS011;49810;48.160;10.812;2024-03-17T00:17:49;7.50;;;4.35;;
47749;SDS011;49810;48.160;10.812;2024-03-17T00:18:52;8.63;;;4.57;;
47749;SDS011;49810;48.160;10.812;2024-03-17T00:19:53;8.05;;;4.15;;
47749;SDS011;49810;48.160;10.812;2024-03-17T00:20:55;8.90;;;4.47;;
47749;SDS011;49810;48.160;10.812;2024-03-17T00:21:56;7.43;;;4.07;;
47749;SDS011;49810;48.160;10.812;2024-03-17T00:22:57;7.57;;;4.35;;
47749;SDS011;49810;48.160;10.812;2024-03-17T00:23:59;8.18;;;4.43;;
47749;SDS011;49810;48.160;10.812;2024-03-17T00:25:00;7.38;;;4.65;;
47749;SDS011;49810;48.160;10.812;2024-03-17T00:26:02;11.93;;;4.93;;
47749;SDS011;49810;48.160;10.812;2024-03-17T00:27:04;8.98;;;4.40;;
47749;SDS011;49810;48.160;10.812;2024-03-17T00:28:05;6.85;;;3.95;;
47749;SDS011;49810;48.160;10.812;2024-03-17T00:29:08;6.80;;;3.55;;
47749;SDS011;49810;48.160;10.812;2024-03-17T00:30:11;6.18;;;3.75;;
47749;SDS011;49810;48.160;10.812;2024-03-17T00:31:13;6.30;;;3.97;;
47749;SDS011;49810;48.160;10.812;2024-03-17T00:32:15;6.07;;;3.47;;
47749;SDS011;49810;48.160;10.812;2024-03-17T00:33:16;5.72;;;3.63;;
47749;SDS011;49810;48.160;10.812;2024-03-17T00:34:21;4.85;;;3.15;;
47749;SDS011;49810;48.160;10.812;2024-03-17T00:35:22;5.15;;;3.17;;
47749;SDS011;49810;48.160;10.812;2024-03-17T00:36:23;5.82;;;3.40;;
47749;SDS011;49810;48.160;10.812;2024-03-17T00:37:24;6.60;;;2.90;;
47749;SDS011;49810;48.160;10.812;2024-03-17T00:38:26;6.05;;;3.38;;
47749;SDS011;49810;48.160;10.812;2024-03-17T00:39:27;4.82;;;2.90;;
47749;SDS011;49810;48.160;10.812;2024-03-17T00:40:28;4.25;;;2.72;;
47749;SDS011;49810;48.160;10.812;2024-03-17T00:41:29;6.45;;;3.50;;
47749;SDS011;49810;48.160;10.812;2024-03-17T00:42:31;4.40;;;3.05;;
47749;SDS011;49810;48.160;10.812;2024-03-17T00:43:33;5.97;;;3.30;;
47749;SDS011;49810;48.160;10.812;2024-03-17T00:44:34;6.25;;;3.17;;
47749;SDS011;49810;48.160;10.812;2024-03-17T00:45:35;4.15;;;2.80;;
47749;SDS011;49810;48.160;10.812;2024-03-17T00:46:37;5.57;;;3.25;;
47749;SDS011;49810;48.160;10.812;2024-03-17T00:47:40;7.20;;;3.78;;
47749;SDS011;49810;48.160;10.812;2024-03-17T00:48:41;5.20;;;2.88;;
47749;SDS011;49810;48.160;10.812;2024-03-17T00:49:43;5.18;;;3.08;;
47749;SDS011;49810;48.160;10.812;2024-03-17T00:50:45;4.53;;;2.83;;
47749;SDS011;49810;48.160;10.812;2024-03-17T00:51:46;4.82;;;3.17;;
47749;SDS011;49810;48.160;10.812;2024-03-17T00:52:49;4.57;;;2.83;;
47749;SDS011;49810;48.160;10.812;2024-03-17T00:53:51;7.18;;;2.55;;
47749;SDS011;49810;48.160;10.812;2024-03-17T00:54:53;4.22;;;2.90;;
47749;SDS011;49810;48.160;10.812;2024-03-17T00:55:54;6.32;;;2.95;;
47749;SDS011;49810;48.160;10.812;2024-03-17T00:56:58;4.85;;;3.22;;
47749;SDS011;49810;48.160;10.812;2024-03-17T00:57:59;5.07;;;2.97;;
47749;SDS011;49810;48.160;10.812;2024-03-17T00:59:00;5.80;;;3.00;;
47749;SDS011;49810;48.160;10.812;2024-03-17T01:00:02;5.32;;;3.28;;
47749;SDS011;49810;48.160;10.812;2024-03-17T01:01:04;5.13;;;3.00;;
47749;SDS011;49810;48.160;10.812;2024-03-17T01:02:05;5.50;;;3.28;;
47749;SDS011;49810;48.160;10.812;2024-03-17T01:03:06;4.85;;;3.03;;
47749;SDS011;49810;48.160;10.812;2024-03-17T01:04:08;4.68;;;3.22;;
47749;SDS011;49810;48.160;10.812;2024-03-17T01:05:10;5.65;;;3.53;;
47749;SDS011;49810;48.160;10.812;2024-03-17T01:06:11;5.53;;;3.30;;
47749;SDS011;49810;48.160;10.812;2024-03-17T01:07:13;6.05;;;3.33;;
47749;SDS011;49810;48.160;10.812;2024-03-17T01:08:15;5.63;;;3.53;;
47749;SDS011;49810;48.160;10.812;2024-03-17T01:09:16;6.80;;;3.67;;
47749;SDS011;49810;48.160;10.812;2024-03-17T01:10:17;4.45;;;3.17;;
47749;SDS011;49810;48.160;10.812;2024-03-17T01:11:19;6.32;;;3.55;;
47749;SDS011;49810;48.160;10.812;2024-03-17T01:12:20;6.10;;;3.38;;
47749;SDS011;49810;48.160;10.812;2024-03-17T01:13:21;9.05;;;3.60;;
47749;SDS011;49810;48.160;10.812;2024-03-17T01:14:23;8.57;;;3.80;;
47749;SDS011;49810;48.160;10.812;2024-03-17T01:15:25;4.97;;;3.75;;
47749;SDS011;49810;48.160;10.812;2024-03-17T01:16:26;6.53;;;3.45;;
47749;SDS011;49810;48.160;10.812;2024-03-17T01:17:27;6.68;;;3.67;;
47749;SDS011;49810;48.160;10.812;2024-03-17T01:18:29;5.20;;;3.53;;
47749;SDS011;49810;48.160;10.812;2024-03-17T01:19:33;6.07;;;3.65;;
47749;SDS011;49810;48.160;10.812;2024-03-17T01:20:36;6.22;;;3.80;;
47749;SDS011;49810;48.160;10.812;2024-03-17T01:21:38;6.15;;;3.85;;
47749;SDS011;49810;48.160;10.812;2024-03-17T01:22:40;5.72;;;3.83;;
47749;SDS011;49810;48.160;10.812;2024-03-17T01:23:41;6.85;;;4.05;;
47749;SDS011;49810;48.160;10.812;2024-03-17T01:24:42;7.68;;;4.35;;
47749;SDS011;49810;48.160;10.812;2024-03-17T01:25:46;7.05;;;4.03;;
47749;SDS011;49810;48.160;10.812;2024-03-17T01:26:48;5.80;;;4.00;;
47749;SDS011;49810;48.160;10.812;2024-03-17T01:27:50;6.50;;;4.25;;
47749;SDS011;49810;48.160;10.812;2024-03-17T01:28:51;5.97;;;3.97;;
47749;SDS011;49810;48.160;10.812;2024-03-17T01:29:53;5.90;;;3.95;;
47749;SDS011;49810;48.160;10.812;2024-03-17T01:30:54;6.03;;;3.85;;
47749;SDS011;49810;48.160;10.812;2024-03-17T01:31:55;6.95;;;3.97;;
47749;SDS011;49810;48.160;10.812;2024-03-17T01:32:56;7.00;;;3.97;;
47749;SDS011;49810;48.160;10.812;2024-03-17T01:34:00;6.25;;;3.85;;
47749;SDS011;49810;48.160;10.812;2024-03-17T01:35:01;6.90;;;4.20;;
47749;SDS011;49810;48.160;10.812;2024-03-17T01:36:05;7.53;;;4.22;;
47749;SDS011;49810;48.160;10.812;2024-03-17T01:37:07;6.53;;;4.30;;
47749;SDS011;49810;48.160;10.812;2024-03-17T01:38:09;8.13;;;4.15;;
47749;SDS011;49810;48.160;10.812;2024-03-17T01:39:10;7.00;;;4.40;;
47749;SDS011;49810;48.160;10.812;2024-03-17T01:40:12;8.23;;;4.15;;
47749;SDS011;49810;48.160;10.812;2024-03-17T01:41:14;7.88;;;4.07;;
47749;SDS011;49810;48.160;10.812;2024-03-17T01:42:15;6.72;;;3.85;;
47749;SDS011;49810;48.160;10.812;2024-03-17T01:43:16;6.25;;;4.20;;
47749;SDS011;49810;48.160;10.812;2024-03-17T01:44:25;7.32;;;4.32;;
47749;SDS011;49810;48.160;10.812;2024-03-17T01:45:29;6.68;;;4.53;;
47749;SDS011;49810;48.160;10.812;2024-03-17T01:46:32;6.00;;;4.30;;
47749;SDS011;49810;48.160;10.812;2024-03-17T01:47:33;7.15;;;4.20;;
47749;SDS011;49810;48.160;10.812;2024-03-17T01:48:35;7.45;;;4.55;;
47749;SDS011;49810;48.160;10.812;2024-03-17T01:49:36;7.22;;;4.13;;
47749;SDS011;49810;48.160;10.812;2024-03-17T01:50:37;9.10;;;4.10;;
47749;SDS011;49810;48.160;10.812;2024-03-17T01:51:41;7.93;;;4.75;;
47749;SDS011;49810;48.160;10.812;2024-03-17T01:52:42;6.53;;;4.47;;
47749;SDS011;49810;48.160;10.812;2024-03-17T01:53:44;6.63;;;3.95;;
47749;SDS011;49810;48.160;10.812;2024-03-17T01:54:47;7.07;;;4.30;;
47749;SDS011;49810;48.160;10.812;2024-03-17T01:55:48;6.85;;;4.15;;
47749;SDS011;49810;48.160;10.812;2024-03-17T01:56:49;7.93;;;4.57;;
47749;SDS011;49810;48.160;10.812;2024-03-17T01:57:50;8.93;;;4.55;;
47749;SDS011;49810;48.160;10.812;2024-03-17T01:58:53;9.95;;;5.07;;
47749;SDS011;49810;48.160;10.812;2024-03-17T01:59:55;6.85;;;4.32;;
47749;SDS011;49810;48.160;10.812;2024-03-17T02:00:56;5.82;;;3.92;;
47749;SDS011;49810;48.160;10.812;2024-03-17T02:01:57;9.77;;;5.00;;
47749;SDS011;49810;48.160;10.812;2024-03-17T02:02:59;8.05;;;4.55;;
47749;SDS011;49810;48.160;10.812;2024-03-17T02:04:01;7.93;;;4.75;;
47749;SDS011;49810;48.160;10.812;2024-03-17T02:05:02;9.20;;;4.78;;
47749;SDS011;49810;48.160;10.812;2024-03-17T02:06:04;6.63;;;4.25;;
47749;SDS011;49810;48.160;10.812;2024-03-17T02:07:07;6.65;;;4.93;;
47749;SDS011;49810;48.160;10.812;2024-03-17T02:08:09;8.45;;;4.90;;
47749;SDS011;49810;48.160;10.812;2024-03-17T02:09:11;8.70;;;5.07;;
47749;SDS011;49810;48.160;10.812;2024-03-17T02:10:13;7.88;;;5.15;;
47749;SDS011;49810;48.160;10.812;2024-03-17T02:11:23;9.05;;;4.75;;
47749;SDS011;49810;48.160;10.812;2024-03-17T02:12:26;11.65;;;5.07;;
47749;SDS011;49810;48.160;10.812;2024-03-17T02:13:27;8.80;;;5.13;;
47749;SDS011;49810;48.160;10.812;2024-03-17T02:14:28;8.07;;;5.10;;
47749;SDS011;49810;48.160;10.812;2024-03-17T02:15:30;10.55;;;5.57;;
47749;SDS011;49810;48.160;10.812;2024-03-17T02:16:31;8.68;;;5.15;;
47749;SDS011;49810;48.160;10.812;2024-03-17T02:17:32;8.25;;;5.25;;
47749;SDS011;49810;48.160;10.812;2024-03-17T02:18:33;7.38;;;4.63;;
47749;SDS011;49810;48.160;10.812;2024-03-17T02:19:35;8.95;;;5.53;;
47749;SDS011;49810;48.160;10.812;2024-03-17T02:20:36;9.60;;;6.18;;
47749;SDS011;49810;48.160;10.812;2024-03-17T02:21:56;9.35;;;5.78;;
47749;SDS011;49810;48.160;10.812;2024-03-17T02:22:58;7.93;;;5.20;;
47749;SDS011;49810;48.160;10.812;2024-03-17T02:24:00;8.93;;;5.28;;
47749;SDS011;49810;48.160;10.812;2024-03-17T02:25:02;7.90;;;5.38;;
47749;SDS011;49810;48.160;10.812;2024-03-17T02:26:04;9.40;;;6.15;;
47749;SDS011;49810;48.160;10.812;2024-03-17T02:27:05;12.65;;;6.15;;
47749;SDS011;49810;48.160;10.812;2024-03-17T02:28:07;10.20;;;5.63;;
47749;SDS011;49810;48.160;10.812;2024-03-17T02:29:08;11.23;;;6.05;;
47749;SDS011;49810;48.160;10.812;2024-03-17T02:30:10;9.52;;;5.63;;
47749;SDS011;49810;48.160;10.812;2024-03-17T02:31:11;10.68;;;5.80;;
47749;SDS011;49810;48.160;10.812;2024-03-17T02:32:15;10.40;;;5.10;;
47749;SDS011;49810;48.160;10.812;2024-03-17T02:33:16;10.30;;;5.85;;
47749;SDS011;49810;48.160;10.812;2024-03-17T02:34:17;8.90;;;5.57;;
47749;SDS011;49810;48.160;10.812;2024-03-17T02:35:18;9.82;;;6.53;;
47749;SDS011;49810;48.160;10.812;2024-03-17T02:36:20;8.60;;;5.55;;
47749;SDS011;49810;48.160;10.812;2024-03-17T02:37:22;9.60;;;6.13;;
47749;SDS011;49810;48.160;10.812;2024-03-17T02:38:25;10.77;;;6.15;;
47749;SDS011;49810;48.160;10.812;2024-03-17T02:39:41;9.50;;;5.72;;
47749;SDS011;49810;48.160;10.812;2024-03-17T02:40:43;9.77;;;5.95;;
47749;SDS011;49810;48.160;10.812;2024-03-17T02:41:44;9.98;;;5.75;;
47749;SDS011;49810;48.160;10.812;2024-03-17T02:42:46;10.02;;;6.32;;
47749;SDS011;49810;48.160;10.812;2024-03-17T02:43:48;7.95;;;5.40;;
47749;SDS011;49810;48.160;10.812;2024-03-17T02:44:49;10.35;;;6.22;;
47749;SDS011;49810;48.160;10.812;2024-03-17T02:45:51;11.43;;;5.35;;
47749;SDS011;49810;48.160;10.812;2024-03-17T02:46:52;9.98;;;5.90;;
47749;SDS011;49810;48.160;10.812;2024-03-17T02:47:54;10.35;;;6.45;;
47749;SDS011;49810;48.160;10.812;2024-03-17T02:48:56;10.20;;;5.95;;
47749;SDS011;49810;48.160;10.812;2024-03-17T02:49:57;9.80;;;4.90;;
47749;SDS011;49810;48.160;10.812;2024-03-17T02:50:59;9.30;;;5.53;;
47749;SDS011;49810;48.160;10.812;2024-03-17T02:52:00;11.32;;;5.75;;
47749;SDS011;49810;48.160;10.812;2024-03-17T02:53:02;8.65;;;5.35;;
47749;SDS011;49810;48.160;10.812;2024-03-17T02:54:05;9.93;;;5.57;;
47749;SDS011;49810;48.160;10.812;2024-03-17T02:55:06;10.30;;;5.90;;
47749;SDS011;49810;48.160;10.812;2024-03-17T02:56:08;10.55;;;6.70;;
47749;SDS011;49810;48.160;10.812;2024-03-17T02:57:09;10.63;;;6.00;;
47749;SDS011;49810;48.160;10.812;2024-03-17T02:58:12;9.25;;;5.85;;
47749;SDS011;49810;48.160;10.812;2024-03-17T02:59:13;12.23;;;6.35;;
47749;SDS011;49810;48.160;10.812;2024-03-17T03:00:14;10.73;;;6.05;;
47749;SDS011;49810;48.160;10.812;2024-03-17T03:01:16;8.52;;;5.57;;
47749;SDS011;49810;48.160;10.812;2024-03-17T03:02:17;10.43;;;5.78;;
47749;SDS011;49810;48.160;10.812;2024-03-17T03:03:19;11.73;;;6.10;;
47749;SDS011;49810;48.160;10.812;2024-03-17T03:04:21;11.73;;;6.07;;
47749;SDS011;49810;48.160;10.812;2024-03-17T03:05:22;9.23;;;6.30;;
47749;SDS011;49810;48.160;10.812;2024-03-17T03:06:24;10.27;;;5.95;;
47749;SDS011;49810;48.160;10.812;2024-03-17T03:07:25;12.68;;;6.18;;
47749;SDS011;49810;48.160;10.812;2024-03-17T03:08:28;9.50;;;5.85;;
47749;SDS011;49810;48.160;10.812;2024-03-17T03:09:31;9.25;;;5.47;;
47749;SDS011;49810;48.160;10.812;2024-03-17T03:10:33;9.82;;;5.97;;
47749;SDS011;49810;48.160;10.812;2024-03-17T03:11:36;9.98;;;5.90;;
47749;SDS011;49810;48.160;10.812;2024-03-17T03:12:38;13.48;;;7.13;;
47749;SDS011;49810;48.160;10.812;2024-03-17T03:13:39;12.07;;;7.00;;
47749;SDS011;49810;48.160;10.812;2024-03-17T03:14:41;13.50;;;6.78;;
47749;SDS011;49810;48.160;10.812;2024-03-17T03:15:42;9.73;;;6.15;;
47749;SDS011;49810;48.160;10.812;2024-03-17T03:16:45;11.20;;;6.60;;
47749;SDS011;49810;48.160;10.812;2024-03-17T03:17:46;11.55;;;6.78;;
47749;SDS011;49810;48.160;10.812;2024-03-17T03:18:48;14.93;;;7.97;;
47749;SDS011;49810;48.160;10.812;2024-03-17T03:19:51;12.43;;;6.45;;
47749;SDS011;49810;48.160;10.812;2024-03-17T03:20:53;14.02;;;7.28;;
47749;SDS011;49810;48.160;10.812;2024-03-17T03:21:54;11.55;;;6.60;;
47749;SDS011;49810;48.160;10.812;2024-03-17T03:22:56;13.57;;;7.50;;
47749;SDS011;49810;48.160;10.812;2024-03-17T03:23:57;12.00;;;6.57;;
47749;SDS011;49810;48.160;10.812;2024-03-17T03:25:01;14.95;;;7.72;;
47749;SDS011;49810;48.160;10.812;2024-03-17T03:26:03;13.48;;;7.30;;
47749;SDS011;49810;48.160;10.812;2024-03-17T03:27:06;11.13;;;6.30;;
47749;SDS011;49810;48.160;10.812;2024-03-17T03:28:07;14.43;;;7.30;;
47749;SDS011;49810;48.160;10.812;2024-03-17T03:29:10;10.52;;;6.82;;
47749;SDS011;49810;48.160;10.812;2024-03-17T03:30:11;13.07;;;6.90;;
47749;SDS011;49810;48.160;10.812;2024-03-17T03:31:15;14.07;;;7.47;;
47749;SDS011;49810;48.160;10.812;2024-03-17T03:32:17;14.27;;;6.65;;
47749;SDS011;49810;48.160;10.812;2024-03-17T03:33:18;12.43;;;7.55;;
47749;SDS011;49810;48.160;10.812;2024-03-17T03:34:20;11.27;;;7.07;;
47749;SDS011;49810;48.160;10.812;2024-03-17T03:35:21;12.23;;;7.20;;
47749;SDS011;49810;48.160;10.812;2024-03-17T03:36:23;13.10;;;7.72;;
47749;SDS011;49810;48.160;10.812;2024-03-17T03:37:24;12.88;;;6.80;;
47749;SDS011;49810;48.160;10.812;2024-03-17T03:38:26;13.35;;;7.07;;
47749;SDS011;49810;48.160;10.812;2024-03-17T03:39:28;11.63;;;6.57;;
47749;SDS011;49810;48.160;10.812;2024-03-17T03:40:34;11.63;;;7.00;;
47749;SDS011;49810;48.160;10.812;2024-03-17T03:41:35;11.25;;;6.47;;
47749;SDS011;49810;48.160;10.812;2024-03-17T03:42:37;13.27;;;7.53;;
47749;SDS011;49810;48.160;10.812;2024-03-17T03:43:38;10.90;;;6.75;;
47749;SDS011;49810;48.160;10.812;2024-03-17T03:44:39;13.02;;;7.07;;
47749;SDS011;49810;48.160;10.812;2024-03-17T03:45:41;11.00;;;6.50;;
47749;SDS011;49810;48.160;10.812;2024-03-17T03:46:43;8.50;;;6.00;;
47749;SDS011;49810;48.160;10.812;2024-03-17T03:47:47;13.40;;;7.25;;
47749;SDS011;49810;48.160;10.812;2024-03-17T03:48:48;11.32;;;6.60;;
47749;SDS011;49810;48.160;10.812;2024-03-17T03:49:51;10.15;;;5.75;;
47749;SDS011;49810;48.160;10.812;2024-03-17T03:50:53;8.88;;;5.30;;
47749;SDS011;49810;48.160;10.812;2024-03-17T03:51:54;9.57;;;6.18;;
47749;SDS011;49810;48.160;10.812;2024-03-17T03:52:56;14.23;;;6.18;;
47749;SDS011;49810;48.160;10.812;2024-03-17T03:53:58;9.50;;;5.85;;
47749;SDS011;49810;48.160;10.812;2024-03-17T03:54:59;9.70;;;5.50;;
47749;SDS011;49810;48.160;10.812;2024-03-17T03:56:04;9.23;;;5.35;;
47749;SDS011;49810;48.160;10.812;2024-03-17T03:57:06;8.93;;;5.53;;
47749;SDS011;49810;48.160;10.812;2024-03-17T03:58:08;9.25;;;5.43;;
47749;SDS011;49810;48.160;10.812;2024-03-17T03:59:10;8.25;;;5.15;;
47749;SDS011;49810;48.160;10.812;2024-03-17T04:00:12;9.63;;;5.03;;
47749;SDS011;49810;48.160;10.812;2024-03-17T04:01:13;7.78;;;5.10;;
47749;SDS011;49810;48.160;10.812;2024-03-17T04:02:21;8.82;;;4.45;;
47749;SDS011;49810;48.160;10.812;2024-03-17T04:03:23;7.70;;;4.50;;
47749;SDS011;49810;48.160;10.812;2024-03-17T04:04:26;8.70;;;4.95;;
47749;SDS011;49810;48.160;10.812;2024-03-17T04:05:27;8.30;;;5.25;;
47749;SDS011;49810;48.160;10.812;2024-03-17T04:06:29;8.40;;;5.65;;
47749;SDS011;49810;48.160;10.812;2024-03-17T04:07:30;7.88;;;5.25;;
47749;SDS011;49810;48.160;10.812;2024-03-17T04:08:31;7.70;;;4.82;;
47749;SDS011;49810;48.160;10.812;2024-03-17T04:09:33;8.27;;;5.22;;
47749;SDS011;49810;48.160;10.812;2024-03-17T04:10:34;7.35;;;4.88;;
47749;SDS011;49810;48.160;10.812;2024-03-17T04:11:37;11.10;;;5.63;;
47749;SDS011;49810;48.160;10.812;2024-03-17T04:12:39;8.80;;;5.05;;
47749;SDS011;49810;48.160;10.812;2024-03-17T04:13:41;9.70;;;6.22;;
47749;SDS011;49810;48.160;10.812;2024-03-17T04:14:43;8.98;;;5.13;;
47749;SDS011;49810;48.160;10.812;2024-03-17T04:15:45;9.02;;;5.47;;
47749;SDS011;49810;48.160;10.812;2024-03-17T04:16:47;8.38;;;5.10;;
47749;SDS011;49810;48.160;10.812;2024-03-17T04:17:48;8.90;;;5.32;;
47749;SDS011;49810;48.160;10.812;2024-03-17T04:18:49;8.48;;;5.13;;
47749;SDS011;49810;48.160;10.812;2024-03-17T04:19:51;8.50;;;5.50;;
47749;SDS011;49810;48.160;10.812;2024-03-17T04:20:53;10.18;;;5.30;;
47749;SDS011;49810;48.160;10.812;2024-03-17T04:21:56;9.15;;;4.82;;
47749;SDS011;49810;48.160;10.812;2024-03-17T04:22:57;10.00;;;5.78;;
47749;SDS011;49810;48.160;10.812;2024-03-17T04:24:00;8.57;;;4.82;;
47749;SDS011;49810;48.160;10.812;2024-03-17T04:25:01;9.55;;;5.63;;
47749;SDS011;49810;48.160;10.812;2024-03-17T04:26:04;11.95;;;5.10;;
47749;SDS011;49810;48.160;10.812;2024-03-17T04:28:10;9.38;;;4.68;;
47749;SDS011;49810;48.160;10.812;2024-03-17T04:29:12;9.38;;;4.65;;
47749;SDS011;49810;48.160;10.812;2024-03-17T04:30:13;8.80;;;4.88;;
47749;SDS011;49810;48.160;10.812;2024-03-17T04:31:14;11.10;;;6.03;;
47749;SDS011;49810;48.160;10.812;2024-03-17T04:32:17;8.70;;;5.10;;
47749;SDS011;49810;48.160;10.812;2024-03-17T04:33:18;8.77;;;5.50;;
47749;SDS011;49810;48.160;10.812;2024-03-17T04:34:19;8.98;;;5.35;;
47749;SDS011;49810;48.160;10.812;2024-03-17T04:35:21;12.27;;;5.55;;
47749;SDS011;49810;48.160;10.812;2024-03-17T04:36:22;13.18;;;5.68;;
47749;SDS011;49810;48.160;10.812;2024-03-17T04:37:24;8.85;;;4.68;;
47749;SDS011;49810;48.160;10.812;2024-03-17T04:38:26;8.43;;;5.35;;
47749;SDS011;49810;48.160;10.812;2024-03-17T04:39:28;9.93;;;5.47;;
47749;SDS011;49810;48.160;10.812;2024-03-17T04:40:29;10.30;;;5.22;;
47749;SDS011;49810;48.160;10.812;2024-03-17T04:41:30;8.13;;;5.15;;
47749;SDS011;49810;48.160;10.812;2024-03-17T04:42:33;7.35;;;4.72;;
47749;SDS011;49810;48.160;10.812;2024-03-17T04:43:34;8.50;;;5.03;;
47749;SDS011;49810;48.160;10.812;2024-03-17T04:44:37;10.48;;;5.50;;
47749;SDS011;49810;48.160;10.812;2024-03-17T04:45:38;9.02;;;4.90;;
47749;SDS011;49810;48.160;10.812;2024-03-17T04:46:39;7.95;;;4.88;;
47749;SDS011;49810;48.160;10.812;2024-03-17T04:47:41;9.60;;;5.53;;
47749;SDS011;49810;48.160;10.812;2024-03-17T04:48:42;9.88;;;6.50;;
47749;SDS011;49810;48.160;10.812;2024-03-17T04:49:43;11.60;;;5.28;;
47749;SDS011;49810;48.160;10.812;2024-03-17T04:50:46;9.93;;;5.32;;
47749;SDS011;49810;48.160;10.812;2024-03-17T04:51:47;11.65;;;5.10;;
47749;SDS011;49810;48.160;10.812;2024-03-17T04:52:49;8.68;;;5.45;;
47749;SDS011;49810;48.160;10.812;2024-03-17T04:53:51;9.30;;;5.55;;
47749;SDS011;49810;48.160;10.812;2024-03-17T04:54:53;9.82;;;5.63;;
47749;SDS011;49810;48.160;10.812;2024-03-17T04:56:00;9.10;;;5.70;;
47749;SDS011;49810;48.160;10.812;2024-03-17T04:57:01;11.70;;;5.57;;
47749;SDS011;49810;48.160;10.812;2024-03-17T04:58:06;8.50;;;5.32;;
47749;SDS011;49810;48.160;10.812;2024-03-17T04:59:07;9.05;;;6.28;;
47749;SDS011;49810;48.160;10.812;2024-03-17T05:00:08;9.88;;;5.70;;
47749;SDS011;49810;48.160;10.812;2024-03-17T05:01:12;9.73;;;5.90;;
47749;SDS011;49810;48.160;10.812;2024-03-17T05:02:13;8.93;;;5.53;;
47749;SDS011;49810;48.160;10.812;2024-03-17T05:03:14;10.30;;;6.10;;
47749;SDS011;49810;48.160;10.812;2024-03-17T05:04:17;9.30;;;6.10;;
47749;SDS011;49810;48.160;10.812;2024-03-17T05:05:18;9.43;;;5.00;;
47749;SDS011;49810;48.160;10.812;2024-03-17T05:06:20;6.82;;;4.55;;
47749;SDS011;49810;48.160;10.812;2024-03-17T05:07:22;9.95;;;5.40;;
47749;SDS011;49810;48.160;10.812;2024-03-17T05:08:24;9.27;;;5.22;;
47749;SDS011;49810;48.160;10.812;2024-03-17T05:09:25;8.85;;;5.45;;
47749;SDS011;49810;48.160;10.812;2024-03-17T05:10:27;9.43;;;5.70;;
47749;SDS011;49810;48.160;10.812;2024-03-17T05:11:28;7.88;;;5.30;;
47749;SDS011;49810;48.160;10.812;2024-03-17T05:12:30;8.93;;;5.18;;
47749;SDS011;49810;48.160;10.812;2024-03-17T05:13:33;10.05;;;6.18;;
47749;SDS011;49810;48.160;10.812;2024-03-17T05:14:36;11.18;;;6.15;;
47749;SDS011;49810;48.160;10.812;2024-03-17T05:15:37;9.75;;;5.28;;
47749;SDS011;49810;48.160;10.812;2024-03-17T05:16:38;9.32;;;5.55;;
47749;SDS011;49810;48.160;10.812;2024-03-17T05:17:40;9.10;;;5.20;;
47749;SDS011;49810;48.160;10.812;2024-03-17T05:18:41;9.00;;;5.38;;
47749;SDS011;49810;48.160;10.812;2024-03-17T05:19:43;9.27;;;5.75;;
47749;SDS011;49810;48.160;10.812;2024-03-17T05:20:44;10.73;;;6.25;;
47749;SDS011;49810;48.160;10.812;2024-03-17T05:21:47;10.48;;;6.05;;
47749;SDS011;49810;48.160;10.812;2024-03-17T05:22:48;9.35;;;5.70;;
47749;SDS011;49810;48.160;10.812;2024-03-17T05:23:50;8.65;;;5.15;;
47749;SDS011;49810;48.160;10.812;2024-03-17T05:24:51;8.77;;;5.40;;
47749;SDS011;49810;48.160;10.812;2024-03-17T05:25:54;9.70;;;5.63;;
47749;SDS011;49810;48.160;10.812;2024-03-17T05:26:56;8.57;;;5.63;;
47749;SDS011;49810;48.160;10.812;2024-03-17T05:27:58;8.13;;;5.03;;
47749;SDS011;49810;48.160;10.812;2024-03-17T05:29:00;10.15;;;5.68;;
47749;SDS011;49810;48.160;10.812;2024-03-17T05:30:03;8.95;;;5.05;;
47749;SDS011;49810;48.160;10.812;2024-03-17T05:31:05;7.95;;;4.65;;
47749;SDS011;49810;48.160;10.812;2024-03-17T05:32:07;8.25;;;5.22;;
47749;SDS011;49810;48.160;10.812;2024-03-17T05:33:08;9.15;;;4.90;;
47749;SDS011;49810;48.160;10.812;2024-03-17T05:34:10;8.25;;;5.30;;
47749;SDS011;49810;48.160;10.812;2024-03-17T05:35:12;8.65;;;5.15;;
47749;SDS011;49810;48.160;10.812;2024-03-17T05:36:13;8.13;;;5.32;;
47749;SDS011;49810;48.160;10.812;2024-03-17T05:37:16;8.55;;;4.97;;
47749;SDS011;49810;48.160;10.812;2024-03-17T05:38:17;9.32;;;5.32;;
47749;SDS011;49810;48.160;10.812;2024-03-17T05:39:19;8.15;;;5.03;;
47749;SDS011;49810;48.160;10.812;2024-03-17T05:40:20;9.32;;;5.75;;
47749;SDS011;49810;48.160;10.812;2024-03-17T05:41:22;9.82;;;5.35;;
47749;SDS011;49810;48.160;10.812;2024-03-17T05:42:26;8.50;;;5.57;;
47749;SDS011;49810;48.160;10.812;2024-03-17T05:43:28;10.02;;;5.22;;
47749;SDS011;49810;48.160;10.812;2024-03-17T05:44:32;10.20;;;6.20;;
47749;SDS011;49810;48.160;10.812;2024-03-17T05:45:50;9.82;;;5.60;;
47749;SDS011;49810;48.160;10.812;2024-03-17T05:46:52;9.88;;;5.78;;
47749;SDS011;49810;48.160;10.812;2024-03-17T05:47:54;10.18;;;5.53;;
47749;SDS011;49810;48.160;10.812;2024-03-17T05:48:56;9.57;;;5.60;;
47749;SDS011;49810;48.160;10.812;2024-03-17T05:49:57;9.55;;;5.75;;
47749;SDS011;49810;48.160;10.812;2024-03-17T05:51:00;7.35;;;4.88;;
47749;SDS011;49810;48.160;10.812;2024-03-17T05:52:03;9.48;;;5.35;;
47749;SDS011;49810;48.160;10.812;2024-03-17T05:53:04;10.88;;;6.43;;
47749;SDS011;49810;48.160;10.812;2024-03-17T05:54:05;10.85;;;6.55;;
47749;SDS011;49810;48.160;10.812;2024-03-17T05:55:07;11.02;;;6.10;;
47749;SDS011;49810;48.160;10.812;2024-03-17T05:56:09;9.68;;;5.43;;
47749;SDS011;49810;48.160;10.812;2024-03-17T05:57:12;9.82;;;6.03;;
47749;SDS011;49810;48.160;10.812;2024-03-17T05:58:14;8.65;;;5.63;;
47749;SDS011;49810;48.160;10.812;2024-03-17T05:59:16;9.15;;;5.60;;
47749;SDS011;49810;48.160;10.812;2024-03-17T06:00:20;9.18;;;5.93;;
47749;SDS011;49810;48.160;10.812;2024-03-17T06:01:21;9.02;;;5.50;;
47749;SDS011;49810;48.160;10.812;2024-03-17T06:02:23;10.40;;;6.15;;
47749;SDS011;49810;48.160;10.812;2024-03-17T06:03:24;10.85;;;6.13;;
47749;SDS011;49810;48.160;10.812;2024-03-17T06:04:25;8.68;;;5.45;;
47749;SDS011;49810;48.160;10.812;2024-03-17T06:05:31;9.05;;;5.32;;
47749;SDS011;49810;48.160;10.812;2024-03-17T06:06:32;10.18;;;5.47;;
47749;SDS011;49810;48.160;10.812;2024-03-17T06:07:33;8.02;;;5.00;;